Time;durP1;ratioP1;P1;durP2;ratioP2;P2;SDS_P1;SDS_P2;PMS_P1;PMS_P2;Temp;Humidity;BMP_temperature;BMP_pressure;BME280_temperature;BME280_humidity;BME280_pressure;Samples;Min_cycle;Max_cycle;Signal;HPM_P1;HPM_P2
2023/01/16 00:00:51;;;;;;;0.45;0.45;;;15.60;51.40;;;;;;5089842;27;45564;-77
2023/01/16 00:03:18;;;;;;;0.40;0.40;;;15.60;51.30;;;;;;5089417;27;45490;-77
2023/01/16 00:05:45;;;;;;;0.45;0.45;;;15.60;51.30;;;;;;5089436;27;45281;-79
2023/01/16 00:08:12;;;;;;;1.90;0.40;;;15.60;51.20;;;;;;5089505;27;45278;-78
2023/01/16 00:10:40;;;;;;;0.32;0.30;;;15.60;51.40;;;;;;5089901;27;45208;-79
2023/01/16 00:13:07;;;;;;;0.50;0.30;;;15.60;51.30;;;;;;5089229;27;45657;-77
2023/01/16 00:15:34;;;;;;;0.30;0.30;;;15.60;51.40;;;;;;5089355;27;45282;-79
2023/01/16 00:18:01;;;;;;;1.88;0.47;;;15.60;51.30;;;;;;5089266;27;45288;-79
2023/01/16 00:20:28;;;;;;;0.75;0.35;;;15.60;51.30;;;;;;5089586;27;45247;-78
2023/01/16 00:22:55;;;;;;;0.30;0.30;;;15.60;51.30;;;;;;5088307;27;46871;-79
2023/01/16 00:25:21;;;;;;;0.40;0.30;;;15.60;51.40;;;;;;5089431;27;45186;-79
2023/01/16 00:27:50;;;;;;;0.45;0.30;;;15.60;51.40;;;;;;5089221;27;45224;-79
2023/01/16 00:30:17;;;;;;;0.30;0.30;;;15.60;51.40;;;;;;5086793;28;45293;-79
2023/01/16 00:32:43;;;;;;;1.70;0.57;;;15.60;51.40;;;;;;5089073;27;46637;-79
2023/01/16 00:35:10;;;;;;;0.47;0.47;;;15.60;51.30;;;;;;5089033;27;45256;-78
2023/01/16 00:37:37;;;;;;;0.63;0.50;;;15.60;51.30;;;;;;5088415;27;45302;-78
2023/01/16 00:40:05;;;;;;;0.60;0.40;;;15.60;51.20;;;;;;5088462;27;45433;-79
2023/01/16 00:42:32;;;;;;;0.20;0.20;;;15.60;51.30;;;;;;5089004;27;45305;-76
2023/01/16 00:45:00;;;;;;;0.77;0.28;;;15.60;51.30;;;;;;5088917;27;45135;-78
2023/01/16 00:47:27;;;;;;;0.55;0.35;;;15.60;51.30;;;;;;5089152;27;45514;-79
2023/01/16 00:49:54;;;;;;;0.30;0.30;;;15.60;51.20;;;;;;5089164;27;45300;-79
2023/01/16 00:52:24;;;;;;;1.00;0.40;;;15.60;51.30;;;;;;5088716;27;45657;-78
2023/01/16 00:54:51;;;;;;;1.10;0.43;;;15.60;51.30;;;;;;5088554;27;45321;-79
2023/01/16 00:57:18;;;;;;;0.60;0.47;;;15.60;51.30;;;;;;5088821;27;45323;-78
2023/01/16 00:59:44;;;;;;;0.60;0.40;;;15.60;51.30;;;;;;5088859;27;45284;-79
2023/01/16 01:02:13;;;;;;;0.43;0.43;;;15.60;51.40;;;;;;5088606;27;46411;-79
2023/01/16 01:04:40;;;;;;;0.20;0.20;;;15.60;51.40;;;;;;5088560;27;45172;-78
2023/01/16 01:07:07;;;;;;;1.25;0.43;;;15.60;51.40;;;;;;5087855;27;45352;-79
2023/01/16 01:09:34;;;;;;;0.65;0.28;;;15.60;51.30;;;;;;5088765;27;45304;-79
2023/01/16 01:12:00;;;;;;;1.25;0.40;;;15.50;51.30;;;;;;5088317;27;45272;-78
2023/01/16 01:14:27;;;;;;;0.40;0.40;;;15.50;51.40;;;;;;5088171;27;45258;-78
2023/01/16 01:16:54;;;;;;;0.65;0.50;;;15.60;51.40;;;;;;5088906;27;45195;-78
2023/01/16 01:19:23;;;;;;;0.73;0.50;;;15.60;51.40;;;;;;5088790;27;45458;-78
2023/01/16 01:21:49;;;;;;;0.30;0.30;;;15.60;51.30;;;;;;5088642;27;46798;-78
2023/01/16 01:24:16;;;;;;;0.32;0.20;;;15.60;51.30;;;;;;5087986;27;45228;-78
2023/01/16 01:26:43;;;;;;;0.93;0.30;;;15.60;51.40;;;;;;5088599;27;45145;-78
2023/01/16 01:29:10;;;;;;;1.58;0.28;;;15.50;51.40;;;;;;5088492;27;45369;-78
2023/01/16 01:31:37;;;;;;;0.40;0.40;;;15.60;51.40;;;;;;5088111;27;47554;-78
2023/01/16 01:34:03;;;;;;;0.85;0.38;;;15.60;51.30;;;;;;5088150;27;45291;-79
2023/01/16 01:36:32;;;;;;;0.45;0.32;;;15.60;51.30;;;;;;5088256;27;45329;-79
2023/01/16 01:38:59;;;;;;;0.30;0.30;;;15.60;51.40;;;;;;5088681;27;45293;-79
2023/01/16 01:41:25;;;;;;;0.55;0.35;;;15.60;51.30;;;;;;5087961;27;47419;-79
2023/01/16 01:43:53;;;;;;;0.20;0.20;;;15.60;51.30;;;;;;5088126;27;45239;-79
2023/01/16 01:46:23;;;;;;;0.40;0.40;;;15.50;51.20;;;;;;5088105;27;45318;-79
2023/01/16 01:48:50;;;;;;;0.50;0.40;;;15.50;51.30;;;;;;5087902;27;45450;-78
2023/01/16 01:51:18;;;;;;;0.40;0.40;;;15.50;51.30;;;;;;5086643;27;46354;-79
2023/01/16 01:53:47;;;;;;;0.80;0.47;;;15.60;51.20;;;;;;5087798;27;45299;-78
2023/01/16 01:56:15;;;;;;;0.52;0.30;;;15.60;51.30;;;;;;5087694;27;45197;-79
2023/01/16 01:58:42;;;;;;;1.02;0.32;;;15.60;51.30;;;;;;5088133;27;45201;-79
2023/01/16 02:01:09;;;;;;;0.32;0.32;;;15.60;51.30;;;;;;5087758;27;46352;-79
2023/01/16 02:03:38;;;;;;;1.13;0.40;;;15.50;51.30;;;;;;5087922;28;45329;-79
2023/01/16 02:06:07;;;;;;;0.20;0.20;;;15.50;51.20;;;;;;5087715;27;45332;-79
2023/01/16 02:08:33;;;;;;;0.20;0.20;;;15.50;51.30;;;;;;5087789;28;45241;-79
2023/01/16 02:11:04;;;;;;;0.75;0.30;;;15.60;51.30;;;;;;5087578;27;46859;-79
2023/01/16 02:13:31;;;;;;;0.95;0.40;;;15.60;51.30;;;;;;5087623;27;45182;-79
2023/01/16 02:21:46;;;;;;;0.28;0.28;;;15.60;51.20;;;;;;5084572;28;45310;-79
2023/01/16 02:24:29;;;;;;;0.20;0.20;;;15.60;51.10;;;;;;5086940;27;45122;-79
2023/01/16 02:27:09;;;;;;;0.88;0.47;;;15.60;51.20;;;;;;5087456;27;45219;-79
2023/01/16 02:30:05;;;;;;;1.23;0.38;;;15.60;51.20;;;;;;5087544;27;45286;-79
2023/01/16 02:32:39;;;;;;;0.57;0.40;;;15.60;51.20;;;;;;5087168;27;45217;-79
2023/01/16 02:35:44;;;;;;;0.20;0.17;;;15.60;51.20;;;;;;5086925;27;45300;-79
2023/01/16 02:38:14;;;;;;;0.57;0.35;;;15.60;51.10;;;;;;5043734;28;45467;-77
2023/01/16 02:40:45;;;;;;;0.32;0.20;;;15.60;51.20;;;;;;5079460;27;45497;-80
2023/01/16 02:43:16;;;;;;;0.85;0.30;;;15.60;51.20;;;;;;5087127;27;46344;-80
2023/01/16 02:45:44;;;;;;;0.30;0.20;;;15.60;51.30;;;;;;5087168;27;45146;-79
2023/01/16 02:48:15;;;;;;;0.50;0.30;;;15.60;51.20;;;;;;5087314;27;45296;-79
2023/01/16 02:50:48;;;;;;;0.52;0.52;;;15.60;51.10;;;;;;5087195;27;45176;-78
2023/01/16 02:53:17;;;;;;;0.82;0.52;;;15.60;51.20;;;;;;5086838;27;45607;-79
2023/01/16 02:55:46;;;;;;;0.50;0.30;;;15.60;51.20;;;;;;5086945;27;45320;-78
2023/01/16 02:58:14;;;;;;;0.30;0.30;;;15.60;51.20;;;;;;5087270;27;45237;-79
2023/01/16 03:00:49;;;;;;;0.30;0.30;;;15.60;51.20;;;;;;5086936;27;45209;-79
2023/01/16 03:03:31;;;;;;;0.43;0.30;;;15.60;51.20;;;;;;5086318;27;47016;-79
2023/01/16 03:05:58;;;;;;;0.85;0.30;;;15.60;51.10;;;;;;5086464;27;45507;-78
2023/01/16 03:08:31;;;;;;;0.50;0.28;;;15.60;51.20;;;;;;5086755;27;45239;-79
2023/01/16 03:11:22;;;;;;;0.52;0.40;;;15.60;51.10;;;;;;5087150;27;45413;-79
2023/01/16 03:14:01;;;;;;;0.30;0.30;;;15.60;51.10;;;;;;5086688;27;45427;-79
2023/01/16 03:16:31;;;;;;;0.30;0.30;;;15.60;51.10;;;;;;5086608;27;45318;-79
2023/01/16 03:19:12;;;;;;;0.17;0.17;;;15.60;51.20;;;;;;5086819;27;45244;-79
2023/01/16 03:21:42;;;;;;;0.57;0.30;;;15.60;51.10;;;;;;5086945;28;45300;-79
2023/01/16 03:24:14;;;;;;;0.75;0.30;;;15.60;51.10;;;;;;5086427;27;45265;-79
2023/01/16 03:26:43;;;;;;;0.38;0.38;;;15.60;51.20;;;;;;5086410;27;45196;-79
2023/01/16 03:29:14;;;;;;;0.10;0.10;;;15.60;51.10;;;;;;5086775;27;45244;-79
2023/01/16 03:31:43;;;;;;;0.30;0.30;;;15.60;51.10;;;;;;5086848;27;45231;-79
2023/01/16 03:34:20;;;;;;;0.90;0.30;;;15.60;51.20;;;;;;5086409;27;46581;-78
2023/01/16 03:36:50;;;;;;;1.60;0.40;;;15.60;51.20;;;;;;5086433;27;45334;-79
2023/01/16 03:39:18;;;;;;;0.25;0.25;;;15.60;51.10;;;;;;5086428;27;45288;-79
2023/01/16 03:41:45;;;;;;;0.35;0.22;;;15.60;51.10;;;;;;5086693;27;45339;-79
2023/01/16 03:44:14;;;;;;;0.40;0.30;;;15.60;51.10;;;;;;5086222;27;46473;-79
2023/01/16 03:46:44;;;;;;;0.43;0.30;;;15.60;51.10;;;;;;5086499;27;45253;-79
2023/01/16 03:49:11;;;;;;;1.35;0.30;;;15.60;51.10;;;;;;5086481;27;45411;-79
2023/01/16 03:51:43;;;;;;;0.22;0.20;;;15.60;51.10;;;;;;5086771;27;45295;-79
2023/01/16 03:54:11;;;;;;;0.38;0.30;;;15.60;51.10;;;;;;5086199;27;45313;-79
2023/01/16 03:56:41;;;;;;;0.20;0.20;;;15.60;51.10;;;;;;5086089;28;45291;-78
2023/01/16 03:59:07;;;;;;;0.30;0.30;;;15.60;51.10;;;;;;5086505;27;45221;-78
2023/01/16 04:01:37;;;;;;;0.80;0.30;;;15.60;51.00;;;;;;5086577;27;45197;-78
2023/01/16 04:04:07;;;;;;;0.47;0.10;;;15.60;51.00;;;;;;5086105;27;45589;-78
2023/01/16 04:06:36;;;;;;;0.75;0.30;;;15.60;51.00;;;;;;5085167;27;45133;-79
2023/01/16 04:09:05;;;;;;;0.20;0.20;;;15.60;51.00;;;;;;5086070;27;45281;-79
2023/01/16 04:11:32;;;;;;;0.77;0.28;;;15.60;51.10;;;;;;5086253;27;45114;-78
2023/01/16 04:13:59;;;;;;;0.38;0.20;;;15.60;51.00;;;;;;5088017;27;45341;-79
2023/01/16 04:16:26;;;;;;;1.02;0.30;;;15.60;51.00;;;;;;5089012;27;45362;-79
2023/01/16 04:18:53;;;;;;;0.22;0.15;;;15.60;51.00;;;;;;5089348;27;45410;-79
2023/01/16 04:21:20;;;;;;;0.47;0.47;;;15.60;51.10;;;;;;5089110;27;45461;-79
2023/01/16 04:23:46;;;;;;;0.30;0.20;;;15.60;51.00;;;;;;5088723;27;46407;-79
2023/01/16 04:26:15;;;;;;;0.52;0.10;;;15.60;51.00;;;;;;5088921;27;45265;-79
2023/01/16 04:28:42;;;;;;;0.17;0.17;;;15.60;51.00;;;;;;5089330;27;45390;-79
2023/01/16 04:31:09;;;;;;;0.68;0.32;;;15.60;50.90;;;;;;5088978;27;45558;-79
2023/01/16 04:33:36;;;;;;;0.30;0.30;;;15.60;50.90;;;;;;5088590;27;47938;-79
2023/01/16 04:36:03;;;;;;;0.30;0.20;;;15.60;50.90;;;;;;5088850;27;45219;-79
2023/01/16 04:38:30;;;;;;;0.13;0.13;;;15.60;50.90;;;;;;5089049;27;45391;-78
2023/01/16 04:40:57;;;;;;;0.55;0.40;;;15.60;50.80;;;;;;5088980;27;45552;-78
2023/01/16 04:43:25;;;;;;;0.50;0.30;;;15.60;50.80;;;;;;5088792;27;45382;-78
2023/01/16 04:45:52;;;;;;;0.20;0.20;;;15.50;50.70;;;;;;5088607;27;45271;-79
2023/01/16 04:48:19;;;;;;;1.10;0.30;;;15.50;50.70;;;;;;5089019;27;45249;-78
2023/01/16 04:50:48;;;;;;;0.05;0.05;;;15.50;50.80;;;;;;5088442;27;45333;-79
2023/01/16 04:53:15;;;;;;;0.08;0.08;;;15.50;50.80;;;;;;5088285;27;46365;-79
2023/01/16 04:55:42;;;;;;;0.50;0.45;;;15.50;50.80;;;;;;5088767;27;45268;-80
2023/01/16 04:58:09;;;;;;;0.70;0.30;;;15.50;50.80;;;;;;5088722;27;45303;-79
2023/01/16 05:00:37;;;;;;;0.63;0.28;;;15.50;50.80;;;;;;5088762;27;45237;-79
2023/01/16 05:03:04;;;;;;;0.63;0.20;;;15.50;50.80;;;;;;5088224;27;45678;-79
2023/01/16 05:05:31;;;;;;;0.20;0.20;;;15.50;50.80;;;;;;5088157;27;45269;-79
2023/01/16 05:10:42;;;;;;;0.25;0.25;;;15.50;50.70;;;;;;5085984;28;45277;-79
2023/01/16 05:13:09;;;;;;;0.30;0.10;;;15.50;50.70;;;;;;5087817;28;46252;-79
2023/01/16 05:15:37;;;;;;;0.40;0.28;;;15.50;50.80;;;;;;5088134;27;45334;-79
2023/01/16 05:18:05;;;;;;;0.30;0.20;;;15.50;50.80;;;;;;5088356;27;45386;-78
2023/01/16 05:20:32;;;;;;;0.45;0.20;;;15.50;50.70;;;;;;5088589;27;45296;-79
2023/01/16 05:22:59;;;;;;;0.35;0.20;;;15.50;50.70;;;;;;5087898;27;45509;-79
2023/01/16 05:25:25;;;;;;;0.70;0.40;;;15.50;50.70;;;;;;5086895;27;45326;-79
2023/01/16 05:27:52;;;;;;;1.10;0.25;;;15.50;50.60;;;;;;5088058;27;45233;-78
2023/01/16 05:30:19;;;;;;;0.40;0.22;;;15.50;50.70;;;;;;5088584;27;45437;-79
2023/01/16 05:32:48;;;;;;;0.40;0.10;;;15.40;50.70;;;;;;5087945;27;45306;-78
2023/01/16 05:35:15;;;;;;;0.10;0.10;;;15.40;50.70;;;;;;5087371;27;45217;-78
2023/01/16 05:37:42;;;;;;;0.15;0.15;;;15.40;50.70;;;;;;5087935;27;45437;-78
2023/01/16 05:40:10;;;;;;;0.52;0.20;;;15.50;50.70;;;;;;5087252;27;45393;-79
2023/01/16 05:42:37;;;;;;;0.45;0.30;;;15.50;50.60;;;;;;5087441;27;45423;-79
2023/01/16 05:45:05;;;;;;;0.10;0.10;;;15.50;50.70;;;;;;5087592;27;45210;-79
2023/01/16 05:47:32;;;;;;;0.40;0.20;;;15.50;50.60;;;;;;5087845;27;45304;-79
2023/01/16 05:50:00;;;;;;;0.10;0.10;;;15.50;50.40;;;;;;5087830;27;45369;-79
2023/01/16 05:52:27;;;;;;;0.45;0.30;;;15.50;50.60;;;;;;5087406;27;46673;-78
2023/01/16 05:54:54;;;;;;;0.88;0.20;;;15.50;50.50;;;;;;5087422;27;45212;-79
2023/01/16 05:57:22;;;;;;;0.10;0.08;;;15.40;50.60;;;;;;5087656;27;45344;-79
2023/01/16 05:59:49;;;;;;;0.35;0.30;;;15.50;50.60;;;;;;5087991;27;45292;-79
2023/01/16 06:02:16;;;;;;;1.48;0.30;;;15.50;50.60;;;;;;5087678;27;45452;-79
2023/01/16 06:04:43;;;;;;;0.03;0.00;;;15.40;50.60;;;;;;5088094;27;45248;-79
2023/01/16 06:07:11;;;;;;;0.30;0.30;;;15.50;50.60;;;;;;5087946;27;45214;-79
2023/01/16 06:09:38;;;;;;;0.55;0.20;;;15.50;50.50;;;;;;5088518;27;45401;-79
2023/01/16 06:12:07;;;;;;;0.25;0.25;;;15.50;50.50;;;;;;5087762;27;46612;-79
2023/01/16 06:14:38;;;;;;;0.57;0.20;;;15.50;50.50;;;;;;5087719;27;45254;-79
2023/01/16 06:17:05;;;;;;;2.08;0.30;;;15.40;50.40;;;;;;5087822;27;45249;-79
2023/01/16 06:19:32;;;;;;;0.10;0.10;;;15.50;50.50;;;;;;5087912;27;45408;-79
2023/01/16 06:21:59;;;;;;;0.15;0.15;;;15.40;50.40;;;;;;5087486;27;45625;-79
2023/01/16 06:24:27;;;;;;;0.45;0.22;;;15.40;50.40;;;;;;5087756;27;45277;-79
2023/01/16 06:26:54;;;;;;;0.20;0.20;;;15.40;50.40;;;;;;5087773;27;45360;-78
2023/01/16 06:29:21;;;;;;;0.20;0.20;;;15.40;50.20;;;;;;5087749;27;45592;-79
2023/01/16 06:31:48;;;;;;;0.10;0.10;;;15.40;50.40;;;;;;5087365;27;45316;-79
2023/01/16 06:34:15;;;;;;;0.17;0.17;;;15.40;50.40;;;;;;5086970;27;45205;-79
2023/01/16 06:36:42;;;;;;;0.20;0.20;;;15.40;50.40;;;;;;5087738;27;45319;-79
2023/01/16 06:39:10;;;;;;;0.43;0.28;;;15.50;50.40;;;;;;5087174;27;45549;-79
2023/01/16 06:41:38;;;;;;;0.45;0.30;;;15.50;50.40;;;;;;5087225;27;45534;-79
2023/01/16 06:44:05;;;;;;;0.28;0.28;;;15.40;50.30;;;;;;5087142;27;45194;-79
2023/01/16 06:46:32;;;;;;;0.32;0.22;;;15.40;50.30;;;;;;5087443;27;45245;-79
2023/01/16 06:48:59;;;;;;;0.20;0.20;;;15.40;50.40;;;;;;5087950;27;45297;-79
2023/01/16 06:51:26;;;;;;;0.10;0.10;;;15.40;50.60;;;;;;5087129;27;45513;-79
2023/01/16 06:53:53;;;;;;;0.73;0.20;;;15.40;50.10;;;;;;5087445;27;45184;-78
2023/01/16 06:56:20;;;;;;;0.10;0.10;;;15.40;50.30;;;;;;5087434;27;45184;-79
2023/01/16 06:58:48;;;;;;;0.20;0.20;;;15.40;50.20;;;;;;5087622;27;45338;-79
2023/01/16 07:01:15;;;;;;;0.20;0.13;;;15.40;50.20;;;;;;5087395;28;45654;-79
2023/01/16 07:03:42;;;;;;;0.17;0.17;;;15.40;50.20;;;;;;5087315;27;45206;-78
2023/01/16 07:06:09;;;;;;;0.00;0.00;;;15.40;50.50;;;;;;5087272;27;45219;-78
2023/01/16 07:08:36;;;;;;;0.50;0.25;;;15.40;50.20;;;;;;5087780;27;45278;-79
2023/01/16 07:11:03;;;;;;;0.20;0.17;;;15.40;50.20;;;;;;5087199;27;45361;-78
2023/01/16 07:13:30;;;;;;;0.32;0.15;;;15.40;50.20;;;;;;5086780;27;45414;-78
2023/01/16 07:24:13;;;;;;;0.30;0.30;;;15.50;50.10;;;;;;5086812;28;45473;-78
2023/01/16 07:26:41;;;;;;;0.15;0.10;;;15.50;50.20;;;;;;5087173;27;45244;-78
2023/01/16 07:29:07;;;;;;;0.10;0.10;;;15.50;50.10;;;;;;5087058;27;45404;-78
2023/01/16 07:31:36;;;;;;;0.20;0.17;;;15.50;50.10;;;;;;5086486;27;46689;-78
2023/01/16 07:34:03;;;;;;;0.40;0.15;;;15.50;50.10;;;;;;5086088;27;45237;-79
2023/01/16 07:36:30;;;;;;;0.10;0.10;;;15.40;50.10;;;;;;5086637;27;45244;-79
2023/01/16 07:38:57;;;;;;;0.03;0.03;;;15.50;50.10;;;;;;5086786;27;45279;-78
2023/01/16 07:41:23;;;;;;;0.20;0.20;;;15.50;50.20;;;;;;5086689;27;45354;-78
2023/01/16 07:43:51;;;;;;;0.10;0.10;;;15.50;50.10;;;;;;5086764;27;45299;-78
2023/01/16 07:46:18;;;;;;;0.13;0.13;;;15.50;50.10;;;;;;5086789;27;45254;-79
2023/01/16 07:48:46;;;;;;;0.20;0.20;;;15.50;50.10;;;;;;5089331;27;45340;-78
2023/01/16 07:51:13;;;;;;;0.10;0.10;;;15.50;50.00;;;;;;5089839;27;46487;-79
2023/01/16 07:53:40;;;;;;;0.00;0.00;;;15.50;50.10;;;;;;5089841;27;45307;-79
2023/01/16 07:56:07;;;;;;;0.45;0.45;;;15.50;50.00;;;;;;5090223;27;45269;-78
2023/01/16 07:58:35;;;;;;;0.70;0.13;;;15.50;50.00;;;;;;5090248;27;45185;-79
2023/01/16 08:01:02;;;;;;;0.13;0.13;;;15.50;50.10;;;;;;5089650;27;45742;-78
2023/01/16 08:03:29;;;;;;;0.10;0.10;;;15.50;50.00;;;;;;5090579;27;45312;-79
2023/01/16 08:05:57;;;;;;;0.20;0.20;;;15.50;49.90;;;;;;5089940;27;45240;-79
2023/01/16 08:08:26;;;;;;;0.20;0.20;;;15.50;49.90;;;;;;5090243;27;45555;-79
2023/01/16 08:10:54;;;;;;;0.30;0.20;;;15.50;49.90;;;;;;5089640;27;45525;-78
2023/01/16 08:13:21;;;;;;;0.10;0.10;;;15.50;49.80;;;;;;5089726;27;45229;-79
2023/01/16 08:15:50;;;;;;;0.10;0.10;;;15.50;49.80;;;;;;5089667;27;45267;-78
2023/01/16 08:18:17;;;;;;;0.35;0.20;;;15.50;49.80;;;;;;5089210;27;45279;-79
2023/01/16 08:20:44;;;;;;;0.17;0.13;;;15.50;49.80;;;;;;5089126;27;46462;-78
2023/01/16 08:23:12;;;;;;;0.10;0.10;;;15.50;49.70;;;;;;5089651;27;45291;-79
2023/01/16 08:25:39;;;;;;;0.10;0.10;;;15.60;50.30;;;;;;5089917;27;45265;-78
2023/01/16 08:28:06;;;;;;;0.80;0.30;;;15.50;49.80;;;;;;5089914;27;45188;-77
2023/01/16 08:30:33;;;;;;;0.20;0.20;;;15.50;49.80;;;;;;5088997;27;46475;-77
2023/01/16 08:33:00;;;;;;;0.25;0.25;;;15.60;49.80;;;;;;5089495;27;45347;-78
2023/01/16 08:35:26;;;;;;;1.45;0.22;;;15.60;49.70;;;;;;5089692;27;45230;-77
2023/01/16 08:37:53;;;;;;;0.15;0.15;;;15.60;49.80;;;;;;5090135;27;45202;-78
2023/01/16 08:40:22;;;;;;;0.17;0.17;;;15.60;49.60;;;;;;5089664;27;45530;-78
2023/01/16 08:51:24;;;;;;;0.90;0.50;;;15.60;49.70;;;;;;5089798;28;45211;-79
2023/01/16 08:53:51;;;;;;;0.28;0.22;;;15.50;49.60;;;;;;5089540;27;45471;-79
2023/01/16 08:56:20;;;;;;;0.30;0.30;;;15.60;49.80;;;;;;5089194;27;45218;-79
2023/01/16 08:58:49;;;;;;;0.32;0.32;;;15.60;49.80;;;;;;5088738;27;45384;-78
2023/01/16 09:01:16;;;;;;;0.93;0.40;;;15.60;49.80;;;;;;5088665;27;47095;-78
2023/01/16 09:03:45;;;;;;;0.40;0.40;;;15.60;49.80;;;;;;5084525;27;45199;-78
2023/01/16 09:06:12;;;;;;;0.22;0.22;;;15.60;49.90;;;;;;5089568;28;45347;-77
2023/01/16 09:08:39;;;;;;;0.40;0.20;;;15.60;50.00;;;;;;5089928;27;45359;-77
2023/01/16 09:13:52;;;;;;;0.25;0.25;;;15.50;50.00;;;;;;5089383;28;45377;-75
2023/01/16 09:16:20;;;;;;;0.30;0.30;;;15.60;50.10;;;;;;5089037;27;45106;-79
2023/01/16 09:18:47;;;;;;;0.40;0.40;;;15.50;50.10;;;;;;5089576;28;45466;-78
2023/01/16 09:21:13;;;;;;;1.45;0.43;;;15.60;50.80;;;;;;5088798;28;45448;-79
2023/01/16 09:23:40;;;;;;;0.75;0.45;;;15.60;50.10;;;;;;5088220;28;45250;-78
2023/01/16 09:26:07;;;;;;;0.32;0.32;;;15.60;50.20;;;;;;5088622;28;45322;-78
2023/01/16 09:28:34;;;;;;;0.75;0.68;;;15.60;50.20;;;;;;5088854;27;45244;-77
2023/01/16 09:31:02;;;;;;;0.45;0.45;;;15.60;50.20;;;;;;5087694;28;46377;-80
2023/01/16 09:33:29;;;;;;;1.08;0.40;;;15.60;50.20;;;;;;5088741;27;45356;-78
2023/01/16 09:35:56;;;;;;;0.63;0.43;;;15.60;50.10;;;;;;5088801;28;45309;-78
2023/01/16 09:38:22;;;;;;;3.92;0.50;;;15.60;50.10;;;;;;5089003;28;45185;-78
2023/01/16 09:40:53;;;;;;;0.50;0.50;;;15.60;50.10;;;;;;5088193;28;46741;-77
2023/01/16 09:43:40;;;;;;;0.88;0.60;;;15.60;50.20;;;;;;5088481;28;45425;-75
2023/01/16 09:46:11;;;;;;;0.60;0.60;;;15.60;50.20;;;;;;5090210;27;45561;-76
2023/01/16 09:48:41;;;;;;;0.90;0.52;;;15.60;50.20;;;;;;5088682;27;45297;-76
2023/01/16 09:51:10;;;;;;;0.90;0.57;;;15.60;50.30;;;;;;5088248;28;46405;-77
2023/01/16 09:59:30;;;;;;;1.80;0.70;;;15.60;51.00;;;;;;5088769;28;45292;-79
2023/01/16 10:02:04;;;;;;;1.33;0.80;;;15.60;50.40;;;;;;5088668;28;45364;-77
2023/01/16 10:04:31;;;;;;;0.60;0.60;;;15.60;50.60;;;;;;5089141;28;45291;-76
2023/01/16 10:07:26;;;;;;;1.05;0.88;;;15.60;50.60;;;;;;5088368;28;45276;-79
2023/01/16 10:09:56;;;;;;;1.30;0.75;;;15.70;50.60;;;;;;5088250;28;45189;-79
2023/01/16 10:12:24;;;;;;;0.73;0.63;;;15.70;50.70;;;;;;5088309;28;46697;-79
2023/01/16 10:14:59;;;;;;;1.58;0.90;;;15.70;50.70;;;;;;5088009;28;45280;-79
2023/01/16 10:17:31;;;;;;;0.60;0.60;;;15.70;50.70;;;;;;5088256;28;45235;-79
2023/01/16 10:20:24;;;;;;;0.60;0.60;;;15.70;50.70;;;;;;5088147;28;45122;-79
2023/01/16 10:22:56;;;;;;;0.73;0.68;;;15.70;50.70;;;;;;5088083;28;45191;-80
2023/01/16 10:25:25;;;;;;;0.80;0.70;;;15.70;50.60;;;;;;5087809;28;45229;-79
2023/01/16 10:28:00;;;;;;;1.20;0.80;;;15.70;50.60;;;;;;5088813;28;45334;-80
2023/01/16 10:30:28;;;;;;;1.05;0.80;;;15.70;50.60;;;;;;5087095;27;45188;-80
2023/01/16 10:33:00;;;;;;;1.02;0.93;;;15.70;50.70;;;;;;5087694;27;46377;-79
2023/01/16 10:35:29;;;;;;;0.80;0.80;;;15.70;50.70;;;;;;5087822;27;45170;-80
2023/01/16 10:37:56;;;;;;;1.23;0.90;;;15.70;50.70;;;;;;5087697;27;45299;-78
2023/01/16 10:40:25;;;;;;;1.40;1.10;;;15.70;50.70;;;;;;5087845;27;45336;-79
2023/01/16 10:51:24;;;;;;;0.90;0.70;;;15.70;50.70;;;;;;5067870;27;45289;-79
2023/01/16 10:53:51;;;;;;;3.50;1.00;;;15.70;50.70;;;;;;5087425;27;48897;-78
2023/01/16 10:56:18;;;;;;;0.73;0.73;;;15.70;50.70;;;;;;5087200;27;45193;-75
2023/01/16 10:58:44;;;;;;;1.42;1.00;;;15.70;51.30;;;;;;5087427;27;45372;-77
2023/01/16 11:01:13;;;;;;;3.92;1.20;;;15.70;50.80;;;;;;5075886;27;45445;-77
2023/01/16 11:03:42;;;;;;;2.00;0.80;;;15.70;50.80;;;;;;5066674;28;46671;-75
2023/01/16 11:06:12;;;;;;;2.00;1.25;;;15.70;50.90;;;;;;5066698;28;45264;-77
2023/01/16 11:08:39;;;;;;;1.95;0.80;;;15.70;50.90;;;;;;5066823;28;45249;-75
2023/01/16 11:18:27;;;;;;;0.73;0.73;;;15.70;50.90;;;;;;5073119;28;45254;-77
2023/01/16 11:19:24;;;;;;;1.90;1.00;;;15.80;50.90;;;;;;5087148;28;45280;-77
2023/01/16 11:21:51;;;;;;;1.85;0.77;;;15.80;50.80;;;;;;5087214;27;45485;-77
2023/01/16 11:24:19;;;;;;;0.95;0.95;;;15.80;50.80;;;;;;5089455;27;46805;-77
2023/01/16 11:26:49;;;;;;;2.33;0.77;;;15.80;50.80;;;;;;5090626;27;45235;-78
2023/01/16 11:29:16;;;;;;;0.70;0.70;;;15.80;50.80;;;;;;5090602;27;45325;-78
2023/01/16 11:31:44;;;;;;;0.82;0.80;;;15.80;50.80;;;;;;5090464;27;45499;-77
2023/01/16 11:34:14;;;;;;;0.95;0.82;;;15.80;50.70;;;;;;5089950;27;46585;-77
2023/01/16 11:36:42;;;;;;;0.93;0.80;;;15.80;50.70;;;;;;5089882;27;45295;-78
2023/01/16 11:39:18;;;;;;;3.63;0.82;;;15.80;50.70;;;;;;5090503;27;45147;-78
2023/01/16 11:41:46;;;;;;;2.92;0.70;;;15.80;50.80;;;;;;5090744;27;45232;-76
2023/01/16 11:46:59;;;;;;;0.80;0.80;;;15.80;51.10;;;;;;5090619;28;45215;-75
2023/01/16 11:49:26;;;;;;;3.65;0.90;;;15.80;51.10;;;;;;5090128;27;45209;-77
2023/01/16 11:51:55;;;;;;;2.15;0.90;;;15.90;51.20;;;;;;5090517;27;45290;-76
2023/01/16 11:54:25;;;;;;;0.98;0.88;;;15.90;51.80;;;;;;5090028;27;45611;-76
2023/01/16 11:57:01;;;;;;;1.02;0.93;;;15.90;51.30;;;;;;5089795;27;45345;-76
2023/01/16 11:59:39;;;;;;;2.20;0.98;;;15.90;51.20;;;;;;5090105;27;45233;-78
2023/01/16 12:02:19;;;;;;;3.53;1.08;;;16.00;51.20;;;;;;5090000;27;45252;-77
2023/01/16 12:07:40;;;;;;;1.75;0.95;;;16.10;51.00;;;;;;5089695;28;45375;-76
2023/01/16 12:10:15;;;;;;;3.20;0.95;;;16.00;50.90;;;;;;5090126;27;45243;-77
2023/01/16 12:15:31;;;;;;;2.60;1.00;;;16.10;50.90;;;;;;5087078;28;45837;-77
2023/01/16 12:18:11;;;;;;;44.63;3.92;;;16.10;50.90;;;;;;5089566;27;45249;-76
2023/01/16 12:20:46;;;;;;;0.90;0.90;;;16.10;50.80;;;;;;5090269;27;45255;-77
2023/01/16 12:23:33;;;;;;;1.70;1.00;;;16.10;50.90;;;;;;5089821;27;45303;-76
2023/01/16 12:26:06;;;;;;;2.35;1.00;;;16.10;50.80;;;;;;5089420;27;45202;-75
2023/01/16 12:28:38;;;;;;;1.52;0.90;;;16.10;50.60;;;;;;5089630;27;45287;-75
2023/01/16 12:31:29;;;;;;;4.47;1.60;;;16.10;50.70;;;;;;5089571;27;45359;-75
2023/01/16 12:33:58;;;;;;;1.67;0.95;;;16.10;50.60;;;;;;5089450;27;45703;-75
2023/01/16 12:36:30;;;;;;;1.30;1.00;;;16.10;51.20;;;;;;5089531;27;46419;-75
2023/01/16 12:39:01;;;;;;;2.15;1.10;;;16.10;50.50;;;;;;5089502;27;45209;-77
2023/01/16 12:44:25;;;;;;;2.20;1.13;;;16.10;50.60;;;;;;5086932;28;45355;-77
2023/01/16 12:47:00;;;;;;;2.15;1.08;;;16.10;50.60;;;;;;5089150;27;45335;-75
2023/01/16 12:49:35;;;;;;;1.25;0.93;;;16.10;50.60;;;;;;5089190;27;45273;-76
2023/01/16 12:52:19;;;;;;;5.63;0.85;;;16.10;50.50;;;;;;5089439;27;45196;-80
2023/01/16 12:54:54;;;;;;;1.10;0.90;;;16.20;50.60;;;;;;5089437;27;45271;-77
2023/01/16 12:57:28;;;;;;;1.90;1.27;;;16.10;50.60;;;;;;5088870;27;45311;-77
2023/01/16 12:59:55;;;;;;;1.20;1.05;;;16.20;50.70;;;;;;5088978;27;45295;-77
2023/01/16 13:02:25;;;;;;;2.47;1.00;;;16.10;50.50;;;;;;5089474;27;45186;-77
2023/01/16 13:04:55;;;;;;;1.08;0.93;;;16.10;50.60;;;;;;5088903;27;45391;-77
2023/01/16 13:07:22;;;;;;;0.75;0.63;;;16.20;50.60;;;;;;5089022;27;46674;-76
2023/01/16 13:13:20;;;;;;;2.00;0.90;;;16.10;50.60;;;;;;5088760;27;45197;-76
2023/01/16 13:15:24;;;;;;;1.95;0.90;;;16.20;50.60;;;;;;5089119;28;45369;-76
2023/01/16 13:17:52;;;;;;;1.77;0.90;;;16.20;50.60;;;;;;5088322;27;46949;-76
2023/01/16 13:20:20;;;;;;;0.90;0.80;;;16.20;51.20;;;;;;5088739;27;45265;-77
2023/01/16 13:22:48;;;;;;;0.98;0.90;;;16.20;50.60;;;;;;5088531;28;45394;-75
2023/01/16 13:25:21;;;;;;;2.50;0.90;;;16.20;50.50;;;;;;5089169;27;45197;-76
2023/01/16 13:27:50;;;;;;;1.80;1.00;;;16.10;50.60;;;;;;5088638;27;45423;-75
2023/01/16 13:30:17;;;;;;;1.52;0.75;;;16.10;50.70;;;;;;5088605;27;45228;-75
2023/01/16 13:32:45;;;;;;;1.20;1.00;;;16.20;50.60;;;;;;5088678;27;45262;-77
2023/01/16 13:35:14;;;;;;;0.70;0.70;;;16.20;50.50;;;;;;5088685;27;45418;-77
2023/01/16 13:38:10;;;;;;;5.00;1.40;;;16.10;50.40;;;;;;5088222;27;46377;-76
2023/01/16 13:41:07;;;;;;;2.42;0.80;;;16.20;50.60;;;;;;5088339;28;45190;-76
2023/01/16 13:46:18;;;;;;;1.58;0.70;;;16.20;50.50;;;;;;5085251;27;45204;-75
2023/01/16 13:48:46;;;;;;;0.95;0.85;;;16.20;50.50;;;;;;5088260;27;46659;-75
2023/01/16 13:51:14;;;;;;;0.85;0.85;;;16.20;50.30;;;;;;5087972;27;45307;-75
2023/01/16 13:53:41;;;;;;;0.85;0.75;;;16.10;50.30;;;;;;5088413;27;45237;-78
2023/01/16 13:56:11;;;;;;;1.98;0.90;;;16.20;50.20;;;;;;5088379;27;45503;-77
2023/01/16 13:58:41;;;;;;;0.73;0.73;;;16.10;50.20;;;;;;5087896;27;48321;-77
2023/01/16 14:01:09;;;;;;;1.20;0.80;;;16.10;50.20;;;;;;5091117;27;45380;-77
2023/01/16 14:03:36;;;;;;;1.70;0.77;;;16.10;50.20;;;;;;5104972;27;45310;-77